Time;durP1;ratioP1;P1;durP2;ratioP2;P2;SDS_P1;SDS_P2;PMS_P1;PMS_P2;Temp;Humidity;BMP_temperature;BMP_pressure;BME280_temperature;BME280_humidity;BME280_pressure;Samples;Min_cycle;Max_cycle;Signal;HPM_P1;HPM_P2
2021/05/04 00:00:23;;;;;;;10.90;4.07;;;;;;;;;;5029155;28;20081;-80
2021/05/04 00:02:49;;;;;;;6.43;3.40;;;;;;;;;;5029264;28;20091;-80
2021/05/04 00:05:15;;;;;;;10.15;4.20;;;;;;;;;;5028621;28;20026;-81
2021/05/04 00:07:41;;;;;;;6.20;2.95;;;;;;;;;;5028725;28;20028;-81
2021/05/04 00:10:07;;;;;;;7.93;2.88;;;;;;;;;;5029049;28;20475;-80
2021/05/04 00:12:33;;;;;;;4.40;3.05;;;;;;;;;;5028854;28;20055;-80
2021/05/04 00:14:59;;;;;;;6.20;3.17;;;;;;;;;;5029316;28;20033;-80
2021/05/04 00:17:25;;;;;;;9.45;2.95;;;;;;;;;;5028566;28;20032;-80
2021/05/04 00:19:51;;;;;;;4.88;2.90;;;;;;;;;;5028503;28;20090;-80
2021/05/04 00:22:17;;;;;;;6.75;3.17;;;;;;;;;;5028538;28;20486;-79
2021/05/04 00:24:44;;;;;;;7.93;5.88;;;;;;;;;;5028664;28;20040;-79
2021/05/04 00:27:10;;;;;;;7.20;3.42;;;;;;;;;;5028240;28;20029;-79
2021/05/04 00:29:36;;;;;;;8.98;4.75;;;;;;;;;;5018275;28;20117;-80
2021/05/04 00:32:02;;;;;;;8.88;4.60;;;;;;;;;;5022341;28;20051;-79
2021/05/04 00:34:28;;;;;;;6.65;3.33;;;;;;;;;;5028024;28;20025;-80
2021/05/04 00:36:54;;;;;;;5.60;2.30;;;;;;;;;;5028230;28;20102;-80
2021/05/04 00:39:20;;;;;;;8.60;4.28;;;;;;;;;;5029295;28;20232;-80
2021/05/04 00:41:46;;;;;;;13.48;4.53;;;;;;;;;;5027045;28;20693;-79
2021/05/04 00:44:12;;;;;;;6.22;2.97;;;;;;;;;;5025971;28;20183;-80
2021/05/04 00:46:38;;;;;;;5.28;3.38;;;;;;;;;;5025530;28;20029;-79
2021/05/04 00:49:04;;;;;;;7.57;3.92;;;;;;;;;;5028450;28;20056;-80
2021/05/04 00:51:30;;;;;;;13.77;4.00;;;;;;;;;;5028539;28;20041;-80
2021/05/04 00:53:56;;;;;;;9.20;2.70;;;;;;;;;;5016351;28;20038;-81
2021/05/04 00:56:24;;;;;;;4.30;2.10;;;10.90;39.10;;;;;;5016844;28;20022;-80
2021/05/04 00:58:50;;;;;;;;;;;10.80;40.30;;;;;;5021084;28;20044;-80
2021/05/04 01:01:16;;;;;;;4.85;2.63;;;;;;;;;;5028311;28;19909;-80
2021/05/04 01:03:43;;;;;;;3.67;2.70;;;;;;;;;;5027893;28;20080;-80
2021/05/04 01:06:09;;;;;;;4.63;2.15;;;;;;;;;;5029109;28;20035;-79
2021/05/04 01:08:36;;;;;;;6.03;2.95;;;;;;;;;;5018564;28;20113;-80
2021/05/04 01:11:02;;;;;;;;;;;10.10;42.20;;;;;;5022680;28;20083;-79
2021/05/04 01:13:28;;;;;;;5.70;3.17;;;;;;;;;;5027928;28;20482;-79
2021/05/04 01:15:54;;;;;;;3.95;2.15;;;;;;;;;;5027897;28;20041;-81
2021/05/04 01:18:20;;;;;;;5.07;2.97;;;;;;;;;;5012934;28;20128;-80
2021/05/04 01:20:50;;;;;;;9.85;2.83;;;;;;;;;;5043531;28;20033;-80
2021/05/04 01:23:16;;;;;;;5.13;2.63;;;;;;;;;;5028127;28;20025;-80
2021/05/04 01:25:42;;;;;;;3.83;1.92;;;;;;;;;;5027730;28;20100;-80
2021/05/04 01:28:08;;;;;;;4.07;2.55;;;;;;;;;;5026061;28;20072;-79
2021/05/04 01:30:34;;;;;;;4.10;2.50;;;;;;;;;;5028099;28;20037;-80
2021/05/04 01:33:01;;;;;;;5.75;2.65;;;;;;;;;;5026751;28;20032;-80
2021/05/04 01:35:27;;;;;;;4.20;2.65;;;9.80;43.80;;;;;;5030881;28;20036;-80
2021/05/04 01:37:54;;;;;;;3.78;2.47;;;;;;;;;;5029882;28;20037;-80
2021/05/04 01:40:20;;;;;;;4.38;2.47;;;;;;;;;;5024965;28;20029;-79
2021/05/04 01:42:47;;;;;;;4.80;3.00;;;;;;;;;;5031406;28;20040;-80
2021/05/04 01:45:16;;;;;;;4.90;2.35;;;;;;;;;;5032535;28;20033;-79
2021/05/04 01:47:42;;;;;;;4.45;3.35;;;10.00;42.20;;;;;;5031146;28;20042;-80
2021/05/04 01:50:09;;;;;;;5.50;2.83;;;;;;;;;;5031306;28;20040;-81
2021/05/04 01:52:35;;;;;;;4.15;3.10;;;;;;;;;;5031301;28;20108;-79
2021/05/04 01:55:01;;;;;;;3.97;2.35;;;;;;;;;;5031406;28;20022;-79
2021/05/04 01:57:27;;;;;;;2.80;1.85;;;;;;;;;;5031277;28;20087;-81
2021/05/04 01:59:53;;;;;;;1.83;1.27;;;10.60;61.20;;;;;;5019432;28;20014;-81
2021/05/04 02:02:19;;;;;;;2.42;1.85;;;;;;;;;;5021545;28;20092;-79
2021/05/04 02:04:45;;;;;;;2.85;1.98;;;;;;;;;;5022742;28;20056;-81
2021/05/04 02:07:11;;;;;;;2.58;2.00;;;;;;;;;;5031025;28;20057;-80
2021/05/04 02:09:37;;;;;;;5.38;2.40;;;;;;;;;;5031146;28;20075;-79
2021/05/04 02:12:03;;;;;;;4.50;2.58;;;;;;;;;;5017889;28;20092;-81
2021/05/04 02:14:29;;;;;;;3.30;1.75;;;;;;;;;;5028520;28;20382;-79
2021/05/04 02:16:55;;;;;;;6.25;2.53;;;;;;;;;;5026329;28;20034;-80
2021/05/04 02:19:21;;;;;;;5.68;2.65;;;;;;;;;;5024584;28;20025;-80
2021/05/04 02:21:47;;;;;;;7.75;3.63;;;;;;;;;;5026108;28;20454;-80
2021/05/04 02:24:13;;;;;;;4.03;2.35;;;;;;;;;;5031301;28;20044;-80
2021/05/04 02:26:39;;;;;;;3.92;1.90;;;;;;;;;;5020563;28;20132;-80
2021/05/04 02:29:05;;;;;;;5.80;2.13;;;;;;;;;;5024674;28;20084;-80
2021/05/04 02:31:31;;;;;;;3.83;1.65;;;;;;;;;;5030753;28;20057;-79
2021/05/04 02:33:57;;;;;;;3.67;1.30;;;;;;;;;;5029926;28;20557;-79
2021/05/04 02:36:23;;;;;;;3.10;1.33;;;;;;;;;;5017560;28;20073;-81
2021/05/04 02:38:49;;;;;;;1.83;1.10;;;;;;;;;;5031475;28;20068;-80
2021/05/04 02:41:15;;;;;;;1.48;1.20;;;;;;;;;;5030813;28;20041;-79
2021/05/04 02:43:41;;;;;;;1.30;1.20;;;;;;;;;;5030340;28;20026;-80
2021/05/04 02:46:07;;;;;;;2.90;1.58;;;;;;;;;;5029190;28;20509;-80
2021/05/04 02:48:38;;;;;;;3.55;2.28;;;;;;;;;;5014654;28;20113;-80
2021/05/04 02:51:08;;;;;;;7.03;3.15;;;;;;;;;;5016022;28;20034;-81
2021/05/04 02:53:34;;;;;;;2.85;1.73;;;;;;;;;;5028684;28;20041;-80
2021/05/04 02:56:00;;;;;;;2.70;1.73;;;;;;;;;;5029736;28;20033;-81
2021/05/04 02:58:26;;;;;;;4.05;2.40;;;;;;;;;;5029655;28;20130;-79
2021/05/04 03:00:53;;;;;;;5.85;2.33;;;10.20;40.10;;;;;;5030009;28;20116;-80
2021/05/04 03:03:19;;;;;;;2.30;1.70;;;;;;;;;;5015403;28;20061;-80
2021/05/04 03:05:45;;;;;;;2.70;1.92;;;;;;;;;;5028692;28;20115;-80
2021/05/04 03:08:11;;;;;;;2.70;1.65;;;;;;;;;;5029831;28;20032;-79
2021/05/04 03:10:37;;;;;;;3.55;1.67;;;;;;;;;;5029529;28;20033;-80
2021/05/04 03:13:03;;;;;;;3.05;1.83;;;;;;;;;;5028190;28;20076;-80
2021/05/04 03:15:29;;;;;;;2.80;1.38;;;;;;;;;;5029963;28;20474;-80
2021/05/04 03:17:55;;;;;;;1.48;1.33;;;;;;;;;;5030675;28;20037;-80
2021/05/04 03:20:21;;;;;;;2.10;1.65;;;;;;;;;;5029483;28;20037;-80
2021/05/04 03:22:47;;;;;;;2.22;1.70;;;;;;;;;;5028111;28;20673;-81
2021/05/04 03:25:13;;;;;;;2.83;1.42;;;;;;;;;;5029425;28;20097;-80
2021/05/04 03:27:39;;;;;;;4.50;2.17;;;;;;;;;;5029525;28;20033;-80
2021/05/04 03:30:07;;;;;;;2.00;1.58;;;;;;;;;;5028937;28;20056;-80
2021/05/04 03:32:33;;;;;;;1.83;1.10;;;;;;;;;;5029394;28;20379;-80
2021/05/04 03:34:59;;;;;;;3.70;2.00;;;;;;;;;;5029549;28;20037;-80
2021/05/04 03:37:25;;;;;;;3.70;2.38;;;;;;;;;;5029397;28;20025;-79
2021/05/04 03:39:51;;;;;;;3.83;2.72;;;;;;;;;;5029090;28;20036;-80
2021/05/04 03:42:17;;;;;;;3.33;2.00;;;;;;;;;;5030347;28;20029;-80
2021/05/04 03:44:43;;;;;;;2.38;1.88;;;;;;;;;;5029174;28;20071;-80
2021/05/04 03:47:08;;;;;;;4.43;1.95;;;;;;;;;;5027862;28;20526;-80
2021/05/04 03:49:35;;;;;;;4.45;2.08;;;;;;;;;;5028948;28;20087;-80
2021/05/04 03:52:00;;;;;;;2.92;1.80;;;;;;;;;;5029137;28;20018;-80
2021/05/04 03:54:27;;;;;;;3.00;2.00;;;;;;;;;;5029344;28;20091;-81
2021/05/04 03:56:52;;;;;;;10.68;2.17;;;;;;;;;;5028227;28;20025;-79
2021/05/04 03:59:19;;;;;;;2.65;1.83;;;;;;;;;;5028631;28;20258;-79
2021/05/04 04:01:44;;;;;;;1.52;1.42;;;;;;;;;;5028936;28;20510;-79
2021/05/04 04:04:10;;;;;;;1.30;1.17;;;;;;;;;;5029099;28;20130;-80
2021/05/04 04:06:36;;;;;;;2.85;1.40;;;;;;;;;;5028916;28;20026;-80
2021/05/04 04:09:03;;;;;;;2.95;1.50;;;;;;;;;;5016218;28;20084;-80
2021/05/04 04:11:28;;;;;;;1.67;1.38;;;;;;;;;;5017273;28;20518;-80
2021/05/04 04:13:54;;;;;;;4.07;1.77;;;;;;;;;;5021928;28;20032;-80
2021/05/04 04:16:20;;;;;;;2.55;1.38;;;;;;;;;;5028862;28;20104;-80
2021/05/04 04:18:46;;;;;;;1.70;1.20;;;;;;;;;;5012745;28;20121;-80
2021/05/04 04:21:12;;;;;;;2.17;1.40;;;;;;;;;;5029746;28;20025;-80
2021/05/04 04:23:39;;;;;;;1.40;1.10;;;;;;;;;;5028092;28;20041;-80
2021/05/04 04:26:05;;;;;;;2.65;1.50;;;;;;;;;;5028515;28;20021;-80
2021/05/04 04:28:32;;;;;;;1.33;1.23;;;;;;;;;;5027009;28;20107;-80
2021/05/04 04:30:58;;;;;;;1.55;0.95;;;;;;;;;;5014272;28;20067;-80
2021/05/04 04:33:27;;;;;;;1.63;1.20;;;;;;;;;;5028668;28;20068;-79
2021/05/04 04:35:53;;;;;;;2.00;0.95;;;;;;;;;;5025609;28;20045;-80
2021/05/04 04:38:20;;;;;;;1.13;1.02;;;;;;;;;;5024597;28;20072;-80
2021/05/04 04:40:46;;;;;;;2.17;1.52;;;;;;;;;;5028378;28;20039;-79
2021/05/04 04:43:12;;;;;;;1.17;1.08;;;;;;;;;;5028082;28;20022;-80
2021/05/04 04:45:38;;;;;;;2.72;1.58;;;;;;;;;;5012059;28;20022;-79
2021/05/04 04:48:05;;;;;;;2.80;1.13;;;;;;;;;;5015597;28;20022;-80
2021/05/04 04:50:31;;;;;;;3.80;1.40;;;;;;;;;;5026164;28;20448;-79
2021/05/04 04:52:57;;;;;;;1.88;1.60;;;;;;;;;;5026701;28;20029;-79
2021/05/04 04:55:23;;;;;;;2.92;1.67;;;;;;;;;;5028138;28;20079;-80
2021/05/04 04:57:49;;;;;;;1.92;1.20;;;;;;;;;;5012328;28;20121;-80
2021/05/04 05:00:15;;;;;;;1.60;1.27;;;;;;;;;;5028956;28;20108;-81
2021/05/04 05:02:41;;;;;;;1.73;1.10;;;;;;;;;;5028144;28;20040;-80
2021/05/04 05:05:07;;;;;;;1.65;1.20;;;;;;;;;;5028267;28;20034;-81
2021/05/04 05:07:33;;;;;;;3.08;1.33;;;;;;;;;;5023775;28;20026;-80
2021/05/04 05:09:59;;;;;;;2.42;1.33;;;;;;;;;;5030510;28;20461;-81
2021/05/04 05:12:26;;;;;;;2.92;1.35;;;;;;;;;;5031850;28;20034;-79
2021/05/04 05:14:52;;;;;;;1.60;1.27;;;12.50;32.50;;;;;;5021667;28;20087;-80
2021/05/04 05:17:19;;;;;;;1.27;1.00;;;;;;;;;;5024833;28;20041;-80
2021/05/04 05:19:45;;;;;;;2.53;1.00;;;;;;;;;;5024601;28;20083;-80
2021/05/04 05:22:11;;;;;;;2.72;2.20;;;;;;;;;;5030315;28;20491;-80
2021/05/04 05:24:40;;;;;;;1.27;1.00;;;;;;;;;;5030625;28;20060;-80
2021/05/04 05:27:06;;;;;;;2.83;0.73;;;;;;;;;;5019483;28;20025;-79
2021/05/04 05:29:34;;;;;;;1.75;1.35;;;12.90;32.00;;;;;;5027173;28;20077;-80
2021/05/04 05:32:00;;;;;;;1.58;0.93;;;;;;;;;;5027084;28;20041;-80
2021/05/04 05:34:27;;;;;;;1.27;0.90;;;;;;;;;;5027579;28;20060;-80
2021/05/04 05:36:52;;;;;;;1.90;1.05;;;;;;;;;;5017572;28;20052;-79
2021/05/04 05:39:19;;;;;;;2.58;1.15;;;;;;;;;;5028239;28;20026;-80
2021/05/04 05:41:45;;;;;;;1.50;1.40;;;;;;;;;;5027021;28;20470;-79
2021/05/04 05:44:13;;;;;;;1.67;1.25;;;;;;;;;;5028259;28;20134;-81
2021/05/04 05:46:39;;;;;;;5.22;1.30;;;;;;;;;;5022742;28;20080;-80
2021/05/04 05:49:05;;;;;;;1.23;1.10;;;;;;;;;;5023690;28;20029;-80
2021/05/04 05:51:31;;;;;;;2.22;1.40;;;;;;;;;;5028614;28;20036;-80
2021/05/04 05:53:57;;;;;;;1.27;0.98;;;;;;;;;;5027260;28;20033;-79
2021/05/04 05:56:23;;;;;;;1.45;1.35;;;;;;;;;;5022985;28;20765;-80
2021/05/04 05:58:49;;;;;;;1.77;1.33;;;;;;;;;;5020318;28;20114;-80
2021/05/04 06:01:16;;;;;;;2.42;0.90;;;;;;;;;;5031879;28;20033;-80
2021/05/04 06:03:42;;;;;;;3.53;1.20;;;;;;;;;;5031078;28;20029;-81
2021/05/04 06:06:08;;;;;;;4.05;1.55;;;;;;;;;;5017730;28;20372;-81
2021/05/04 06:08:34;;;;;;;1.50;1.02;;;;;;;;;;5029350;28;20036;-82
2021/05/04 06:11:00;;;;;;;1.98;1.60;;;;;;;;;;5026017;28;20038;-82
2021/05/04 06:13:26;;;;;;;1.20;1.10;;;;;;;;;;5019986;28;20033;-81
2021/05/04 06:15:52;;;;;;;2.88;1.13;;;;;;;;;;5031194;28;20026;-81
2021/05/04 06:18:18;;;;;;;2.17;1.17;;;;;;;;;;5032036;28;20034;-81
2021/05/04 06:20:44;;;;;;;5.03;1.10;;;;;;;;;;5030183;28;20067;-81
2021/05/04 06:23:10;;;;;;;4.75;1.38;;;;;;;;;;5024465;28;20494;-82
2021/05/04 06:25:36;;;;;;;3.28;1.30;;;;;;;;;;5021209;28;20022;-80
2021/05/04 06:28:08;;;;;;;1.30;1.08;;;13.80;31.80;;;;;;5024118;28;20030;-81
2021/05/04 06:30:35;;;;;;;2.20;1.15;;;14.10;31.00;;;;;;5030896;28;20025;-82
2021/05/04 06:33:08;;;;;;;;;;;14.20;30.70;;;;;;5016758;28;20231;-81
2021/05/04 06:35:36;;;;;;;2.30;1.95;;;14.40;29.80;;;;;;5029029;28;19960;-81
2021/05/04 06:38:05;;;;;;;1.70;1.20;;;;;;;;;;5025205;28;20517;-82
2021/05/04 06:40:32;;;;;;;2.70;1.58;;;15.20;30.40;;;;;;5020261;28;20021;-80
2021/05/04 06:42:58;;;;;;;5.17;1.83;;;;;;;;;;5030161;28;20490;-81
2021/05/04 06:45:24;;;;;;;1.30;1.13;;;;;;;;;;5032834;28;20032;-81
2021/05/04 06:47:50;;;;;;;3.15;1.13;;;;;;;;;;5031025;28;20029;-81
2021/05/04 06:50:16;;;;;;;1.50;1.30;;;;;;;;;;5030020;28;20407;-81
2021/05/04 06:52:42;;;;;;;4.07;2.13;;;;;;;;;;5030171;28;20025;-82
2021/05/04 06:55:09;;;;;;;9.80;2.20;;;;;;;;;;5030339;28;20449;-81
2021/05/04 06:57:35;;;;;;;5.45;1.60;;;;;;;;;;5030065;28;20068;-82
2021/05/04 07:00:01;;;;;;;1.38;1.08;;;;;;;;;;5030630;28;20045;-80
2021/05/04 07:02:27;;;;;;;2.65;1.10;;;;;;;;;;5021490;28;20038;-82
2021/05/04 07:04:53;;;;;;;2.70;1.77;;;;;;;;;;5022434;28;20755;-82
2021/05/04 07:07:19;;;;;;;1.45;1.30;;;;;;;;;;5030166;28;20041;-81
2021/05/04 07:09:45;;;;;;;1.20;1.10;;;;;;;;;;5029959;28;20380;-82
2021/05/04 07:12:11;;;;;;;2.45;1.10;;;;;;;;;;5031067;28;20037;-81
2021/05/04 07:14:38;;;;;;;2.45;1.30;;;;;;;;;;5019879;28;20736;-82
2021/05/04 07:17:04;;;;;;;1.15;0.57;;;;;;;;;;5018186;28;20091;-82
2021/05/04 07:19:30;;;;;;;1.30;1.20;;;;;;;;;;5019366;28;20033;-82
2021/05/04 07:21:57;;;;;;;1.77;0.80;;;;;;;;;;5029993;28;20044;-81
2021/05/04 07:24:23;;;;;;;1.05;0.82;;;;;;;;;;5014027;28;20026;-81
2021/05/04 07:26:49;;;;;;;1.40;1.00;;;;;;;;;;5025466;28;20056;-81
2021/05/04 07:29:15;;;;;;;0.82;0.77;;;;;;;;;;5022246;28;20080;-83
2021/05/04 07:31:42;;;;;;;1.08;0.70;;;;;;;;;;5017520;28;20061;-80
2021/05/04 07:34:09;;;;;;;3.35;1.30;;;;;;;;;;5016085;28;20076;-81
2021/05/04 07:36:35;;;;;;;4.63;0.90;;;;;;;;;;5029763;28;20474;-81
2021/05/04 07:39:01;;;;;;;3.47;1.08;;;;;;;;;;5030153;28;20068;-81
2021/05/04 07:41:27;;;;;;;1.40;0.90;;;;;;;;;;5029186;28;20033;-80
2021/05/04 07:43:53;;;;;;;1.30;0.95;;;;;;;;;;5025317;28;20034;-80
2021/05/04 07:46:20;;;;;;;4.90;1.00;;;;;;;;;;5017022;28;20553;-80
2021/05/04 07:48:46;;;;;;;1.13;1.02;;;;;;;;;;5029056;28;20033;-80
2021/05/04 07:51:12;;;;;;;3.65;1.05;;;;;;;;;;5030271;28;20029;-81
2021/05/04 07:53:38;;;;;;;0.90;0.70;;;;;;;;;;5029095;28;20029;-81
2021/05/04 07:56:04;;;;;;;1.73;1.08;;;;;;;;;;5028951;28;20037;-81
2021/05/04 07:58:30;;;;;;;1.08;0.82;;;;;;;;;;5028565;28;20036;-80
2021/05/04 08:00:56;;;;;;;1.40;0.98;;;;;;;;;;5028713;28;20521;-81
2021/05/04 08:03:22;;;;;;;2.65;1.05;;;;;;;;;;5013920;28;20026;-81
2021/05/04 08:05:49;;;;;;;1.85;0.93;;;;;;;;;;5029223;28;20124;-81
2021/05/04 08:08:15;;;;;;;0.68;0.60;;;;;;;;;;5028668;28;20029;-81
2021/05/04 08:10:41;;;;;;;0.85;0.82;;;;;;;;;;5028603;28;20394;-81
2021/05/04 08:13:07;;;;;;;0.95;0.80;;;;;;;;;;5028478;28;20029;-80
2021/05/04 08:15:34;;;;;;;1.52;1.23;;;;;;;;;;5028867;28;20506;-81
2021/05/04 08:18:06;;;;;;;0.98;0.88;;;;;;;;;;5016607;28;20037;-80
2021/05/04 08:20:34;;;;;;;2.55;1.10;;;;;;;;;;5026497;28;20034;-80
2021/05/04 08:23:03;;;;;;;1.00;0.90;;;;;;;;;;5023895;28;20034;-80
2021/05/04 08:25:30;;;;;;;0.57;0.55;;;;;;;;;;5011055;28;20038;-80
2021/05/04 08:27:56;;;;;;;5.88;1.02;;;;;;;;;;5028150;28;20025;-81
2021/05/04 08:30:22;;;;;;;3.17;1.02;;;;;;;;;;5029437;28;20034;-80
2021/05/04 08:32:49;;;;;;;1.42;0.98;;;;;;;;;;5028483;28;20030;-79
2021/05/04 08:35:15;;;;;;;2.35;0.90;;;21.80;23.40;;;;;;5028579;28;20029;-81
2021/05/04 08:37:41;;;;;;;1.20;0.70;;;;;;;;;;5021902;28;20715;-81
2021/05/04 08:40:08;;;;;;;1.50;0.73;;;21.90;23.50;;;;;;5028711;28;20120;-81
2021/05/04 08:42:35;;;;;;;1.15;1.05;;;;;;;;;;5028468;28;20018;-81
2021/05/04 08:45:04;;;;;;;1.30;0.85;;;21.60;22.60;;;;;;5029004;28;20032;-81
2021/05/04 08:47:30;;;;;;;1.95;1.05;;;;;;;;;;5019254;28;20053;-79
2021/05/04 08:49:56;;;;;;;1.40;0.80;;;;;;;;;;5017082;28;20033;-80
2021/05/04 08:52:22;;;;;;;1.50;0.80;;;;;;;;;;5028400;28;20030;-80
2021/05/04 08:54:48;;;;;;;5.22;0.82;;;;;;;;;;5012365;28;20040;-81
2021/05/04 08:57:14;;;;;;;3.60;1.27;;;;;;;;;;5013707;28;20030;-80
2021/05/04 08:59:40;;;;;;;2.92;0.70;;;;;;;;;;5026598;28;20581;-80
2021/05/04 09:02:06;;;;;;;2.55;1.10;;;;;;;;;;5023862;28;20112;-81
2021/05/04 09:04:39;;;;;;;2.03;0.90;;;20.10;24.10;;;;;;5028194;28;20148;-81
2021/05/04 09:07:28;;;;;;;6.57;1.13;;;20.40;23.80;;;;;;5028321;28;20407;-81
2021/05/04 09:10:12;;;;;;;1.73;1.00;;;20.40;24.80;;;;;;5012894;28;20033;-81
2021/05/04 09:12:48;;;;;;;2.38;1.10;;;;;;;;;;5027936;28;20026;-81
2021/05/04 09:21:09;;;;;;;2.35;0.82;;;22.00;23.80;;;;;;5027555;28;20110;-81
2021/05/04 09:23:36;;;;;;;5.90;0.95;;;22.20;23.80;;;;;;5018409;28;20471;-82
2021/05/04 09:26:02;;;;;;;0.98;0.60;;;;;;;;;;5016678;28;20080;-81
2021/05/04 09:28:28;;;;;;;0.77;0.77;;;;;;;;;;5016375;28;20045;-81
2021/05/04 09:30:56;;;;;;;1.92;1.00;;;21.90;23.40;;;;;;5012510;28;20445;-80
2021/05/04 09:33:23;;;;;;;1.58;1.00;;;;;;;;;;5013258;28;20025;-80
2021/05/04 09:35:49;;;;;;;1.50;0.70;;;;;;;;;;5028092;28;20750;-81
2021/05/04 09:38:17;;;;;;;2.80;1.33;;;24.20;21.60;;;;;;5027803;28;20033;-80
2021/05/04 09:40:45;;;;;;;4.38;0.90;;;23.50;22.70;;;;;;5027798;28;20383;-81
2021/05/04 09:43:18;;;;;;;1.85;0.90;;;24.00;23.10;;;;;;5027784;28;20454;-81
2021/05/04 09:45:51;;;;;;;8.68;1.50;;;24.20;23.00;;;;;;5027833;28;20030;-80
2021/05/04 09:48:39;;;;;;;2.63;0.85;;;24.20;22.20;;;;;;5013513;28;20594;-81
2021/05/04 09:51:05;;;;;;;1.23;0.60;;;;;;;;;;5026877;28;20033;-81
2021/05/04 09:56:11;;;;;;;2.67;1.02;;;24.60;22.20;;;;;;5030069;28;20057;-80
2021/05/04 09:58:39;;;;;;;1.33;0.65;;;;;;;;;;5030612;28;20068;-81
2021/05/04 10:01:11;;;;;;;2.83;1.02;;;24.00;21.50;;;;;;5031161;28;20392;-80
2021/05/04 10:03:39;;;;;;;2.28;1.30;;;23.50;22.70;;;;;;5031413;28;20034;-82
2021/05/04 10:06:07;;;;;;;1.40;0.82;;;22.70;22.90;;;;;;5016724;28;20072;-81
2021/05/04 10:08:34;;;;;;;1.55;0.90;;;22.70;24.40;;;;;;5028846;28;20037;-81
2021/05/04 10:11:14;;;;;;;0.73;0.50;;;22.60;24.20;;;;;;5030868;28;20060;-81
2021/05/04 10:13:41;;;;;;;1.10;0.77;;;21.90;24.30;;;;;;5030556;28;20032;-81
2021/05/04 10:16:08;;;;;;;1.45;0.90;;;;;;;;;;5031107;28;20045;-80
2021/05/04 10:18:35;;;;;;;1.20;0.90;;;;;;;;;;5031039;28;20536;-80
2021/05/04 10:21:03;;;;;;;1.40;0.98;;;21.50;25.40;;;;;;5031804;28;20035;-81
2021/05/04 10:23:30;;;;;;;1.30;1.00;;;21.00;25.10;;;;;;5029424;28;20041;-81
2021/05/04 10:25:59;;;;;;;1.50;1.00;;;20.80;25.10;;;;;;5030594;28;20505;-81
2021/05/04 10:28:36;;;;;;;1.95;1.27;;;20.10;25.90;;;;;;5025728;28;20478;-81
2021/05/04 10:31:07;;;;;;;1.77;1.10;;;20.30;26.20;;;;;;5016198;28;20029;-81
2021/05/04 10:33:34;;;;;;;1.67;1.02;;;;;;;;;;5030748;28;20032;-81
2021/05/04 10:36:01;;;;;;;5.88;0.90;;;20.60;25.90;;;;;;5031640;28;20049;-82
2021/05/04 10:38:47;;;;;;;;;;;21.00;25.80;;;;;;5022411;28;20050;-80
2021/05/04 10:41:13;;;;;;;1.75;1.10;;;;;;;;;;5018859;28;20306;-81
2021/05/04 10:43:40;;;;;;;2.65;1.10;;;21.10;25.40;;;;;;5021330;28;20026;-80
2021/05/04 10:46:11;;;;;;;8.75;1.00;;;21.20;25.10;;;;;;5016742;28;20048;-80
2021/05/04 10:48:37;;;;;;;0.85;0.73;;;;;;;;;;5014470;28;20064;-80
2021/05/04 10:51:13;;;;;;;1.95;1.27;;;21.00;25.60;;;;;;5031259;28;20060;-80
2021/05/04 10:53:56;;;;;;;0.85;0.80;;;20.80;26.00;;;;;;5019966;28;20541;-80
2021/05/04 10:56:44;;;;;;;9.07;1.40;;;20.80;25.10;;;;;;5018690;28;20034;-82
2021/05/04 10:59:34;;;;;;;3.70;1.10;;;20.80;25.80;;;;;;5020065;28;20041;-81
2021/05/04 11:02:09;;;;;;;2.03;0.80;;;20.90;45.30;;;;;;5025322;28;20022;-80
2021/05/04 11:04:39;;;;;;;5.20;1.08;;;20.80;26.10;;;;;;5019921;28;20057;-80
2021/05/04 11:07:05;;;;;;;7.78;1.08;;;;;;;;;;5028959;28;20075;-81
2021/05/04 11:09:31;;;;;;;1.55;0.93;;;;;;;;;;5012643;28;20505;-80
2021/05/04 11:11:58;;;;;;;3.83;2.08;;;;;;;;;;5018208;28;20227;-80
2021/05/04 11:14:28;;;;;;;3.17;0.77;;;20.60;26.30;;;;;;5026233;28;20037;-81
2021/05/04 11:16:56;;;;;;;1.60;0.95;;;;;;;;;;5025862;28;20052;-80
2021/05/04 11:19:31;;;;;;;4.75;1.23;;;;;;;;;;5018479;28;20039;-80
2021/05/04 11:21:57;;;;;;;2.25;0.95;;;;;;;;;;5028314;28;20010;-81
2021/05/04 11:24:29;;;;;;;2.03;1.27;;;;;;;;;;5014776;28;20048;-80
2021/05/04 11:26:59;;;;;;;5.40;1.20;;;20.90;26.30;;;;;;5018021;28;20080;-80
2021/05/04 11:29:31;;;;;;;4.15;1.45;;;;;;;;;;5025815;28;20049;-81
2021/05/04 11:32:08;;;;;;;7.38;1.13;;;20.70;44.80;;;;;;5029474;28;20046;-81
2021/05/04 11:34:44;;;;;;;2.03;1.02;;;20.50;45.40;;;;;;5025840;28;20061;-81
2021/05/04 11:37:14;;;;;;;1.23;0.75;;;20.30;25.90;;;;;;5029436;28;20041;-81
2021/05/04 11:39:55;;;;;;;2.95;0.98;;;20.40;30.20;;;;;;5013156;28;20044;-82
2021/05/04 11:42:40;;;;;;;3.85;1.08;;;20.20;26.60;;;;;;5026275;28;20032;-81
2021/05/04 11:45:10;;;;;;;0.80;0.80;;;20.40;28.60;;;;;;5014724;28;20108;-81
2021/05/04 11:47:41;;;;;;;2.72;1.48;;;20.20;26.10;;;;;;5027516;28;20044;-80
2021/05/04 11:50:10;;;;;;;2.00;1.20;;;;;;;;;;5023864;28;20034;-80
2021/05/04 11:52:38;;;;;;;10.15;1.88;;;20.40;25.70;;;;;;5018869;28;20553;-81
2021/05/04 11:55:17;;;;;;;1.52;0.80;;;20.40;24.90;;;;;;5029003;28;20033;-81
2021/05/04 11:57:45;;;;;;;1.27;1.20;;;20.50;26.00;;;;;;5028950;28;20072;-81
2021/05/04 12:00:15;;;;;;;4.20;1.08;;;20.40;24.70;;;;;;5029930;28;20509;-81
2021/05/04 12:02:42;;;;;;;1.77;0.90;;;;;;;;;;5028979;28;20034;-81
2021/05/04 12:05:08;;;;;;;1.20;0.80;;;;;;;;;;5023441;28;20057;-81
2021/05/04 12:07:44;;;;;;;1.38;0.70;;;20.40;43.10;;;;;;5018364;28;20018;-80
2021/05/04 12:10:12;;;;;;;1.65;1.13;;;;;;;;;;5030054;28;20108;-88
2021/05/04 12:12:45;;;;;;;91.03;5.22;;;;;;;;;;5030858;28;20021;-82
2021/05/04 12:15:13;;;;;;;1.25;1.02;;;20.20;26.40;;;;;;5014772;28;20074;-83
2021/05/04 12:17:39;;;;;;;2.25;0.95;;;20.20;26.30;;;;;;5027004;28;20041;-82
2021/05/04 12:20:16;;;;;;;2.57;0.97;;;20.10;25.20;;;;;;5028703;28;20025;-83
2021/05/04 12:22:48;;;;;;;1.85;1.38;;;20.00;26.70;;;;;;5028671;28;20033;-82
2021/05/04 12:25:26;;;;;;;1.25;0.98;;;20.00;25.80;;;;;;5028794;28;20039;-82
2021/05/04 12:27:53;;;;;;;1.45;1.00;;;;;;;;;;5012905;28;20030;-83
2021/05/04 12:30:21;;;;;;;2.67;1.30;;;19.90;26.30;;;;;;5029567;28;20048;-82
2021/05/04 12:32:48;;;;;;;1.17;0.80;;;19.90;26.10;;;;;;5028380;28;20029;-83
2021/05/04 12:35:18;;;;;;;5.10;1.30;;;;;;;;;;5028825;28;20065;-82
2021/05/04 12:37:45;;;;;;;1.63;0.88;;;;;;;;;;5025729;28;20036;-83
2021/05/04 12:40:19;;;;;;;1.48;0.95;;;19.90;26.20;;;;;;5028626;28;20033;-83
2021/05/04 12:42:47;;;;;;;1.73;0.98;;;;;;;;;;5009857;28;20048;-83
2021/05/04 12:45:14;;;;;;;1.20;0.80;;;;;;;;;;5029609;28;20026;-83
2021/05/04 12:47:50;;;;;;;1.87;1.03;;;19.70;25.20;;;;;;5018384;28;20038;-82
2021/05/04 12:50:35;;;;;;;1.25;1.15;;;19.50;29.60;;;;;;5026265;28;20040;-82
2021/05/04 12:53:01;;;;;;;1.70;1.10;;;19.50;26.10;;;;;;5028032;28;20116;-81
2021/05/04 12:55:28;;;;;;;12.50;1.10;;;19.50;25.40;;;;;;5028489;28;20096;-82
2021/05/04 12:58:11;;;;;;;2.67;1.23;;;19.20;44.70;;;;;;5012674;28;20076;-83
2021/05/04 13:00:37;;;;;;;2.22;1.30;;;;;;;;;;5026360;28;20025;-83
2021/05/04 13:03:04;;;;;;;3.17;2.20;;;;;;;;;;5017455;28;20057;-82
2021/05/04 13:05:30;;;;;;;2.45;1.17;;;;;;;;;;5025361;28;20040;-81
2021/05/04 13:08:03;;;;;;;1.55;1.33;;;19.40;26.00;;;;;;5026916;28;20038;-81
2021/05/04 13:34:43;;;;;;;2.50;1.52;;;;;;;;;;5031803;28;20055;-82
2021/05/04 13:37:17;;;;;;;1.88;0.82;;;18.80;27.60;;;;;;5031983;28;20467;-82
2021/05/04 13:48:08;;;;;;;2.28;1.48;;;18.80;28.50;;;;;;4987933;28;20597;-84
2021/05/04 13:50:34;;;;;;;4.82;1.33;;;;;;;;;;4987953;28;20066;-82
2021/05/04 13:53:00;;;;;;;1.13;0.93;;;;;;;;;;4972532;28;20119;-84
2021/05/04 13:55:26;;;;;;;2.72;0.90;;;;;;;;;;4988376;28;20030;-82
2021/05/04 13:57:55;;;;;;;7.32;1.48;;;;;;;;;;4987118;28;20620;-84
2021/05/04 14:00:48;;;;;;;7.15;1.50;;;;;;;;;;4989454;28;20146;-83
2021/05/04 14:03:22;;;;;;;2.03;1.03;;;;;;;;;;4986699;28;20598;-82
2021/05/04 14:27:34;;;;;;;3.60;1.10;;;;;;;;;;4987592;28;20225;-83
2021/05/04 14:30:01;;;;;;;1.80;1.10;;;;;;;;;;4988202;28;20065;-81
2021/05/04 14:32:27;;;;;;;1.27;0.90;;;;;;;;;;4986644;28;20046;-83
2021/05/04 14:34:56;;;;;;;1.55;1.00;;;;;;;;;;4986785;28;20416;-82
2021/05/04 14:45:06;;;;;;;2.90;1.23;;;;;;;;;;4987355;28;20573;-83
2021/05/04 15:00:55;;;;;;;2.95;0.95;;;;;;;;;;5026468;28;20753;-82
2021/05/04 15:03:21;;;;;;;2.15;1.15;;;;;;;;;;5023592;28;20025;-83
2021/05/04 15:05:47;;;;;;;1.17;1.05;;;;;;;;;;5024808;28;20025;-82
2021/05/04 15:08:14;;;;;;;0.85;0.70;;;;;;;;;;5026576;28;20760;-82
2021/05/04 15:10:40;;;;;;;2.40;1.50;;;;;;;;;;5019068;28;20045;-83
2021/05/04 15:13:08;;;;;;;3.47;1.13;;;;;;;;;;5024076;28;20874;-82
2021/05/04 15:20:41;;;;;;;4.05;1.23;;;;;;;;;;5025149;28;20499;-82
2021/05/04 15:23:15;;;;;;;1.60;1.30;;;;;;;;;;5024807;28;20044;-82
2021/05/04 15:25:41;;;;;;;1.58;0.85;;;;;;;;;;5029404;28;20029;-83
2021/05/04 15:28:07;;;;;;;2.28;1.42;;;;;;;;;;5029521;28;20450;-83
2021/05/04 15:30:33;;;;;;;5.75;1.20;;;;;;;;;;5028964;28;20080;-82
2021/05/04 15:33:03;;;;;;;0.90;0.85;;;;;;;;;;5028674;28;20014;-83
2021/05/04 15:35:36;;;;;;;1.70;0.82;;;18.60;28.00;;;;;;5020933;28;20041;-83
2021/05/04 15:38:03;;;;;;;3.15;1.35;;;18.70;29.20;;;;;;5023436;28;20030;-82
2021/05/04 15:40:29;;;;;;;1.20;0.82;;;;;;;;;;5019456;28;20732;-83
2021/05/04 15:42:56;;;;;;;1.13;0.93;;;;;;;;;;5012537;28;20421;-83
2021/05/04 15:45:22;;;;;;;4.55;0.95;;;;;;;;;;5018610;28;20025;-83